Time;durP1;ratioP1;P1;durP2;ratioP2;P2;SDS_P1;SDS_P2;PMS_P1;PMS_P2;Temp;Humidity;BMP_temperature;BMP_pressure;BME280_temperature;BME280_humidity;BME280_pressure;Samples;Min_cycle;Max_cycle;Signal;HPM_P1;HPM_P2
2023/05/25 00:01:06;;;;;;;4.13;1.70;;;15.10;84.80;;;;;;5044455;28;20024;-78
2023/05/25 00:03:32;;;;;;;3.58;1.67;;;15.20;84.90;;;;;;5061509;28;20039;-78
2023/05/25 00:06:01;;;;;;;9.32;1.88;;;15.30;85.10;;;;;;5078615;28;20058;-78
2023/05/25 00:08:28;;;;;;;6.45;1.42;;;15.30;84.60;;;;;;5060355;28;20040;-79
2023/05/25 00:10:53;;;;;;;4.70;1.50;;;15.40;84.40;;;;;;5060765;28;20155;-78
2023/05/25 00:13:19;;;;;;;3.83;1.77;;;15.40;84.60;;;;;;5080849;28;20074;-78
2023/05/25 00:15:45;;;;;;;4.60;1.38;;;15.50;84.40;;;;;;5076169;28;20063;-77
2023/05/25 00:18:11;;;;;;;5.93;1.83;;;15.60;84.60;;;;;;5075629;28;20043;-76
2023/05/25 00:20:38;;;;;;;6.50;1.80;;;15.60;84.40;;;;;;5075343;28;20057;-76
2023/05/25 00:23:03;;;;;;;2.53;1.10;;;15.60;83.90;;;;;;5093438;28;20028;-76
2023/05/25 00:25:29;;;;;;;7.97;2.05;;;15.60;84.30;;;;;;5075349;28;20039;-76
2023/05/25 00:27:55;;;;;;;5.13;1.63;;;15.60;84.00;;;;;;5075277;28;20032;-76
2023/05/25 00:30:20;;;;;;;4.07;1.40;;;15.60;84.10;;;;;;5075320;28;20119;-77
2023/05/25 00:32:46;;;;;;;5.00;1.33;;;15.60;84.00;;;;;;5075009;28;20085;-76
2023/05/25 00:35:12;;;;;;;4.07;1.52;;;15.60;84.20;;;;;;5075259;28;20082;-77
2023/05/25 00:37:37;;;;;;;5.22;1.70;;;15.70;84.30;;;;;;5093050;28;20098;-76
2023/05/25 00:40:06;;;;;;;4.70;1.30;;;15.70;84.00;;;;;;5092985;28;20028;-76
2023/05/25 00:42:32;;;;;;;4.28;1.40;;;15.70;84.40;;;;;;5058425;28;20124;-77
2023/05/25 00:44:57;;;;;;;2.92;0.82;;;15.70;84.40;;;;;;5058361;28;20036;-77
2023/05/25 00:47:23;;;;;;;4.05;1.48;;;15.80;84.40;;;;;;5093303;28;20054;-77
2023/05/25 00:49:50;;;;;;;2.70;1.02;;;15.90;84.50;;;;;;5075328;28;20031;-77
2023/05/25 00:52:16;;;;;;;6.07;1.65;;;15.90;84.40;;;;;;5075137;28;20059;-76
2023/05/25 00:54:44;;;;;;;3.40;1.52;;;15.90;84.10;;;;;;5093218;28;20056;-76
2023/05/25 00:57:12;;;;;;;3.00;1.20;;;15.90;83.80;;;;;;5093425;28;20029;-76
2023/05/25 00:59:41;;;;;;;3.35;1.25;;;15.90;83.80;;;;;;5074827;28;20032;-77
2023/05/25 01:02:09;;;;;;;5.68;1.92;;;15.90;84.00;;;;;;5092499;28;20024;-77
2023/05/25 01:04:39;;;;;;;7.75;2.25;;;15.90;83.60;;;;;;5092988;28;20025;-76
2023/05/25 01:07:07;;;;;;;5.15;1.48;;;15.90;83.20;;;;;;5093234;28;20035;-76
2023/05/25 01:09:34;;;;;;;4.25;1.50;;;15.80;83.40;;;;;;5086239;28;20037;-76
2023/05/25 01:12:01;;;;;;;2.25;1.08;;;15.80;83.40;;;;;;5054918;28;20119;-76
2023/05/25 01:14:27;;;;;;;4.07;1.60;;;15.80;83.70;;;;;;5072992;28;20047;-76
2023/05/25 01:16:57;;;;;;;4.28;1.30;;;15.80;83.60;;;;;;5072710;28;20086;-77
2023/05/25 01:19:23;;;;;;;5.13;1.60;;;15.80;83.80;;;;;;5055560;28;20041;-77
2023/05/25 01:22:22;;;;;;;4.50;1.30;;;15.80;83.60;;;;;;5055265;28;20338;-76
2023/05/25 01:25:01;;;;;;;2.97;1.30;;;15.80;83.90;;;;;;5072586;28;20025;-76
2023/05/25 01:27:42;;;;;;;3.70;1.60;;;15.80;83.70;;;;;;5073120;28;20112;-76
2023/05/25 01:30:13;;;;;;;3.35;1.08;;;15.80;84.00;;;;;;5072842;28;20025;-76
2023/05/25 01:32:41;;;;;;;5.95;1.20;;;15.80;84.10;;;;;;5073032;28;20028;-76
2023/05/25 01:35:08;;;;;;;5.13;1.45;;;15.80;84.10;;;;;;5072477;28;20040;-76
2023/05/25 01:37:36;;;;;;;3.65;1.00;;;15.80;84.00;;;;;;5054863;28;20024;-76
2023/05/25 01:40:04;;;;;;;4.85;1.05;;;15.80;84.00;;;;;;5071864;28;20441;-76
2023/05/25 01:42:30;;;;;;;4.35;1.30;;;15.90;84.20;;;;;;5072375;28;20119;-77
2023/05/25 01:44:57;;;;;;;5.28;1.58;;;15.90;84.30;;;;;;5039156;28;20442;-77
2023/05/25 01:47:31;;;;;;;2.28;1.00;;;16.00;84.30;;;;;;5076234;28;20111;-76
2023/05/25 01:50:06;;;;;;;3.17;1.30;;;16.00;84.20;;;;;;5075896;28;20031;-76
2023/05/25 01:52:40;;;;;;;3.85;1.17;;;16.00;84.00;;;;;;5057932;28;20052;-77
2023/05/25 01:55:10;;;;;;;5.90;2.13;;;16.00;84.10;;;;;;5058401;28;20033;-76
2023/05/25 01:57:41;;;;;;;3.83;1.67;;;15.90;84.40;;;;;;5076072;28;20030;-76
2023/05/25 02:00:09;;;;;;;5.93;1.60;;;15.90;83.50;;;;;;5076094;28;20054;-76
2023/05/25 02:02:36;;;;;;;8.10;2.65;;;15.90;83.90;;;;;;5058204;28;20481;-76
2023/05/25 02:05:02;;;;;;;4.25;1.67;;;15.80;83.70;;;;;;5075448;28;20483;-76
2023/05/25 02:07:28;;;;;;;9.35;2.20;;;15.80;83.80;;;;;;5075717;28;20032;-76
2023/05/25 02:09:54;;;;;;;4.68;1.40;;;15.80;84.10;;;;;;5060338;28;20421;-76
2023/05/25 02:12:19;;;;;;;4.45;1.20;;;15.80;84.10;;;;;;5078005;28;20115;-77
2023/05/25 02:14:47;;;;;;;3.15;0.90;;;15.80;84.10;;;;;;5095919;28;20031;-76
2023/05/25 02:17:13;;;;;;;3.75;1.08;;;15.90;84.30;;;;;;5077862;28;20035;-76
2023/05/25 02:19:39;;;;;;;3.97;1.30;;;15.90;84.20;;;;;;5095713;28;20077;-77
2023/05/25 02:22:05;;;;;;;3.92;1.33;;;15.90;84.10;;;;;;5078038;28;20032;-76
2023/05/25 02:24:33;;;;;;;3.03;1.10;;;15.90;83.90;;;;;;5060810;28;20040;-76
2023/05/25 02:27:00;;;;;;;5.50;1.60;;;15.80;84.10;;;;;;5077192;28;20039;-77
2023/05/25 02:29:26;;;;;;;3.55;1.40;;;15.90;84.90;;;;;;5095346;28;20039;-77
2023/05/25 02:31:52;;;;;;;7.47;2.30;;;15.90;84.20;;;;;;5077154;28;20024;-76
2023/05/25 02:34:18;;;;;;;4.32;1.48;;;15.90;83.70;;;;;;5077422;28;20032;-77
2023/05/25 02:36:44;;;;;;;5.30;1.52;;;15.80;83.60;;;;;;5077427;28;20173;-77
2023/05/25 02:39:10;;;;;;;6.40;2.47;;;15.80;84.00;;;;;;5077030;28;20444;-76
2023/05/25 02:41:37;;;;;;;4.90;1.65;;;15.80;83.90;;;;;;5076880;28;20052;-77
2023/05/25 02:44:02;;;;;;;3.83;1.27;;;15.80;83.80;;;;;;5077343;28;20097;-76
2023/05/25 02:46:28;;;;;;;4.75;1.52;;;15.70;84.10;;;;;;5077058;28;20039;-76
2023/05/25 02:48:54;;;;;;;4.85;1.48;;;15.70;84.00;;;;;;5076849;28;20097;-76
2023/05/25 02:51:19;;;;;;;5.80;1.90;;;15.70;84.20;;;;;;5076740;28;20047;-77
2023/05/25 02:53:45;;;;;;;5.03;1.75;;;15.70;84.10;;;;;;5076816;28;20102;-76
2023/05/25 02:56:11;;;;;;;6.63;2.10;;;15.70;83.90;;;;;;5094465;28;20024;-76
2023/05/25 02:58:37;;;;;;;7.78;2.35;;;15.70;83.70;;;;;;5076500;28;20036;-76
2023/05/25 03:01:04;;;;;;;5.70;2.35;;;15.60;83.90;;;;;;5077135;28;20348;-77
2023/05/25 03:03:30;;;;;;;6.95;2.28;;;15.50;83.90;;;;;;5076842;28;20024;-76
2023/05/25 03:05:56;;;;;;;4.13;1.63;;;15.40;84.00;;;;;;5060129;28;20090;-76
2023/05/25 03:08:22;;;;;;;2.60;1.30;;;15.40;84.70;;;;;;5059583;28;20032;-77
2023/05/25 03:10:47;;;;;;;5.75;1.60;;;15.40;84.90;;;;;;5095008;28;20063;-78
2023/05/25 03:13:13;;;;;;;3.80;1.40;;;15.40;85.00;;;;;;5094572;28;20024;-76
2023/05/25 03:15:39;;;;;;;3.15;0.93;;;15.50;84.80;;;;;;5076545;28;20036;-76
2023/05/25 03:18:05;;;;;;;4.03;1.25;;;15.60;85.00;;;;;;5077063;28;20357;-76
2023/05/25 03:20:34;;;;;;;3.72;1.42;;;15.70;85.00;;;;;;5076707;28;20032;-77
2023/05/25 03:22:59;;;;;;;5.32;1.80;;;15.70;85.00;;;;;;5094725;28;20036;-77
2023/05/25 03:25:25;;;;;;;5.70;1.85;;;15.70;84.70;;;;;;5075989;28;20028;-77
2023/05/25 03:27:52;;;;;;;4.13;1.75;;;15.60;84.40;;;;;;5076317;28;20036;-77
2023/05/25 03:30:19;;;;;;;4.80;1.48;;;15.60;84.60;;;;;;5076532;28;20052;-77
2023/05/25 03:32:44;;;;;;;4.20;1.48;;;15.60;84.60;;;;;;5094200;28;20020;-77
2023/05/25 03:35:10;;;;;;;3.85;1.10;;;15.60;84.50;;;;;;5076003;28;20039;-77
2023/05/25 03:37:36;;;;;;;2.45;0.80;;;15.60;84.60;;;;;;5093928;28;20033;-77
2023/05/25 03:40:01;;;;;;;3.22;1.42;;;15.60;84.90;;;;;;5059088;28;20128;-77
2023/05/25 03:42:27;;;;;;;5.63;1.50;;;15.60;84.90;;;;;;5093675;28;20119;-76
2023/05/25 03:44:53;;;;;;;4.32;1.83;;;15.60;84.90;;;;;;5075504;28;20032;-77
2023/05/25 03:47:18;;;;;;;7.93;2.25;;;15.60;84.90;;;;;;5094022;28;20119;-77
2023/05/25 03:49:44;;;;;;;5.78;2.40;;;15.60;84.60;;;;;;5093939;28;20457;-76
2023/05/25 03:52:10;;;;;;;5.70;2.08;;;15.50;84.50;;;;;;5094053;28;20043;-77
2023/05/25 03:54:35;;;;;;;3.92;1.83;;;15.50;84.60;;;;;;5058854;28;20032;-77
2023/05/25 03:57:02;;;;;;;5.88;1.70;;;15.40;84.50;;;;;;5075603;28;20115;-77
2023/05/25 03:59:28;;;;;;;7.53;1.80;;;15.40;84.60;;;;;;5076128;28;20035;-77
2023/05/25 04:01:54;;;;;;;7.13;2.33;;;15.30;84.50;;;;;;5094016;28;20028;-77
2023/05/25 04:04:20;;;;;;;4.90;1.73;;;15.30;84.80;;;;;;5075219;28;20033;-77
2023/05/25 04:06:47;;;;;;;7.97;2.58;;;15.20;85.10;;;;;;5093407;28;20129;-77
2023/05/25 04:09:14;;;;;;;5.80;1.90;;;15.20;85.10;;;;;;5075729;28;20032;-76
2023/05/25 04:11:40;;;;;;;4.07;1.40;;;15.20;85.10;;;;;;5070624;28;20052;-77
2023/05/25 04:14:05;;;;;;;6.22;1.58;;;15.20;85.50;;;;;;5093528;28;20081;-77
2023/05/25 04:16:31;;;;;;;7.35;2.28;;;15.20;85.70;;;;;;5093143;28;20181;-76
2023/05/25 04:18:57;;;;;;;5.03;1.73;;;15.20;85.80;;;;;;5093065;28;20035;-77
2023/05/25 04:21:22;;;;;;;6.45;1.95;;;15.20;86.20;;;;;;5093285;28;20109;-76
2023/05/25 04:23:48;;;;;;;6.47;2.15;;;15.20;86.00;;;;;;5092931;28;20028;-77
2023/05/25 04:26:17;;;;;;;7.50;2.22;;;15.20;85.90;;;;;;5075133;28;20043;-76
2023/05/25 04:28:43;;;;;;;10.27;2.55;;;15.10;86.10;;;;;;5093257;28;20056;-76
2023/05/25 04:31:08;;;;;;;4.50;1.60;;;15.10;86.00;;;;;;5075293;28;20117;-76
2023/05/25 04:33:37;;;;;;;5.22;1.85;;;15.00;86.60;;;;;;5093205;28;20024;-76
2023/05/25 04:36:07;;;;;;;5.65;2.38;;;15.10;86.80;;;;;;5093446;28;20111;-76
2023/05/25 04:38:34;;;;;;;8.05;2.47;;;15.10;86.70;;;;;;5092775;28;20038;-76
2023/05/25 04:41:02;;;;;;;4.10;1.73;;;15.10;86.60;;;;;;5092778;28;20048;-76
2023/05/25 04:43:31;;;;;;;5.50;1.90;;;15.10;86.70;;;;;;5075591;28;20044;-76
2023/05/25 04:45:58;;;;;;;6.07;2.38;;;15.10;86.70;;;;;;5092642;28;20050;-77
2023/05/25 04:48:27;;;;;;;5.32;1.90;;;15.10;86.70;;;;;;5092738;28;20021;-77
2023/05/25 04:50:54;;;;;;;5.65;1.77;;;15.10;86.80;;;;;;5058151;28;20100;-77
2023/05/25 04:53:23;;;;;;;9.77;2.90;;;15.10;86.80;;;;;;5092973;28;20426;-77
2023/05/25 04:55:48;;;;;;;8.52;3.00;;;15.10;87.10;;;;;;5075398;28;20480;-77
2023/05/25 04:58:14;;;;;;;8.38;2.25;;;15.00;87.10;;;;;;5074851;28;20028;-75
2023/05/25 05:00:40;;;;;;;8.40;3.05;;;15.00;87.30;;;;;;5092903;28;20028;-75
2023/05/25 05:03:06;;;;;;;6.90;2.50;;;14.90;87.50;;;;;;5074567;28;20437;-76
2023/05/25 05:05:33;;;;;;;5.47;2.33;;;14.80;87.90;;;;;;5093268;28;20059;-76
2023/05/25 05:08:00;;;;;;;3.95;1.40;;;14.80;88.90;;;;;;5074863;28;20052;-76
2023/05/25 05:10:25;;;;;;;7.50;2.35;;;14.80;88.40;;;;;;5089657;28;20037;-76
2023/05/25 05:12:51;;;;;;;11.32;2.95;;;14.90;88.50;;;;;;5054783;28;20028;-77
2023/05/25 05:15:17;;;;;;;8.52;2.95;;;14.80;88.80;;;;;;5072967;28;20392;-77
2023/05/25 05:17:42;;;;;;;6.65;2.28;;;14.80;88.70;;;;;;5054546;28;20036;-76
2023/05/25 05:20:08;;;;;;;5.00;1.80;;;14.80;88.60;;;;;;5073584;28;20552;-76
2023/05/25 05:22:36;;;;;;;8.00;2.00;;;14.90;89.00;;;;;;5058846;28;20033;-77
2023/05/25 05:25:01;;;;;;;9.82;4.60;;;14.90;89.00;;;;;;5041674;28;20037;-76
2023/05/25 05:27:27;;;;;;;6.38;2.42;;;14.90;89.50;;;;;;5058245;28;20036;-76
2023/05/25 05:29:53;;;;;;;7.72;2.45;;;14.90;89.00;;;;;;5058397;28;20465;-76
2023/05/25 05:32:18;;;;;;;10.85;3.35;;;14.90;89.20;;;;;;5058273;28;20028;-77
2023/05/25 05:34:44;;;;;;;9.07;3.45;;;14.90;89.30;;;;;;5058249;28;20082;-76
2023/05/25 05:37:10;;;;;;;8.57;2.72;;;15.00;89.30;;;;;;5076181;28;20029;-75
2023/05/25 05:39:36;;;;;;;7.40;2.60;;;15.00;89.60;;;;;;5075757;28;20469;-76
2023/05/25 05:42:02;;;;;;;11.10;3.28;;;15.00;89.50;;;;;;5058579;28;20028;-75
2023/05/25 05:44:27;;;;;;;14.82;4.15;;;15.00;89.60;;;;;;5041441;28;20140;-76
2023/05/25 05:46:58;;;;;;;13.02;3.97;;;15.00;89.70;;;;;;5058281;28;20036;-76
2023/05/25 05:49:28;;;;;;;9.93;3.92;;;15.00;89.80;;;;;;5059145;28;20029;-77
2023/05/25 05:51:53;;;;;;;12.98;4.50;;;14.80;90.20;;;;;;5042005;28;20024;-76
2023/05/25 05:54:19;;;;;;;6.57;2.35;;;14.70;90.50;;;;;;5075983;28;20058;-77
2023/05/25 05:56:45;;;;;;;13.10;4.60;;;14.60;90.60;;;;;;5075519;28;20040;-78
2023/05/25 05:59:11;;;;;;;9.88;3.22;;;14.70;90.80;;;;;;5075218;28;20496;-77
2023/05/25 06:01:37;;;;;;;13.18;4.63;;;14.70;90.80;;;;;;5075350;28;20558;-78
2023/05/25 06:04:04;;;;;;;13.52;4.82;;;14.50;91.20;;;;;;5057810;28;20040;-77
2023/05/25 06:06:32;;;;;;;11.25;4.40;;;14.50;91.40;;;;;;5076081;28;20056;-78
2023/05/25 06:08:59;;;;;;;7.78;2.90;;;14.50;91.60;;;;;;5057820;28;20427;-79
2023/05/25 06:11:25;;;;;;;13.43;4.43;;;14.60;91.50;;;;;;5084926;28;20118;-79
2023/05/25 06:13:51;;;;;;;13.35;4.28;;;14.70;91.50;;;;;;5095804;28;20032;-78
2023/05/25 06:16:16;;;;;;;10.10;3.63;;;14.80;91.50;;;;;;5095650;28;20036;-79
2023/05/25 06:18:42;;;;;;;20.27;5.97;;;14.90;91.50;;;;;;5077249;28;20407;-78
2023/05/25 06:21:08;;;;;;;16.02;5.60;;;14.90;91.70;;;;;;5077642;28;20115;-78
2023/05/25 06:23:33;;;;;;;14.35;4.60;;;14.80;91.80;;;;;;5077357;28;20042;-77
2023/05/25 06:26:05;;;;;;;12.45;3.65;;;14.70;91.80;;;;;;5077410;28;20040;-76
2023/05/25 06:28:31;;;;;;;14.23;5.00;;;14.80;92.00;;;;;;5095268;28;20059;-75
2023/05/25 06:30:57;;;;;;;14.60;5.43;;;14.90;92.10;;;;;;5095466;28;20032;-77
2023/05/25 06:33:23;;;;;;;15.80;5.78;;;14.90;92.10;;;;;;5095014;28;20032;-75
2023/05/25 06:35:49;;;;;;;15.52;6.28;;;14.80;92.20;;;;;;5061108;28;20032;-77
2023/05/25 06:38:15;;;;;;;18.85;6.28;;;14.70;92.60;;;;;;5076834;28;20059;-76
2023/05/25 06:40:41;;;;;;;19.13;6.13;;;14.70;92.60;;;;;;5077097;28;20031;-77
2023/05/25 06:43:06;;;;;;;13.68;5.78;;;14.80;92.70;;;;;;5077862;28;20032;-77
2023/05/25 06:45:32;;;;;;;13.25;4.80;;;14.80;92.60;;;;;;5095034;28;20055;-77
2023/05/25 06:47:58;;;;;;;10.95;4.15;;;14.90;92.50;;;;;;5094984;28;20163;-77
2023/05/25 06:50:23;;;;;;;22.45;6.97;;;15.00;92.50;;;;;;5076979;28;20024;-76
2023/05/25 06:52:49;;;;;;;12.50;4.75;;;15.10;92.80;;;;;;5076906;28;20028;-77
2023/05/25 06:55:15;;;;;;;15.80;5.20;;;15.00;92.60;;;;;;5060341;28;20036;-76
2023/05/25 06:57:42;;;;;;;17.85;3.88;;;15.00;92.60;;;;;;5094963;28;20032;-74
2023/05/25 07:00:11;;;;;;;12.65;3.90;;;15.00;92.40;;;;;;5077165;28;20031;-74
2023/05/25 07:02:37;;;;;;;12.80;4.65;;;14.90;92.60;;;;;;5094850;28;20035;-74
2023/05/25 07:05:05;;;;;;;13.30;4.53;;;14.90;92.60;;;;;;5076650;28;20123;-73
2023/05/25 07:07:31;;;;;;;13.23;4.05;;;15.00;92.70;;;;;;5095243;28;20553;-73
2023/05/25 07:09:57;;;;;;;16.58;4.93;;;15.10;92.70;;;;;;5094453;28;20469;-73
2023/05/25 07:12:22;;;;;;;11.93;3.58;;;15.20;92.50;;;;;;5094891;28;20156;-73
2023/05/25 07:14:48;;;;;;;14.25;4.30;;;15.20;92.40;;;;;;5094886;28;20083;-73
2023/05/25 07:17:14;;;;;;;14.13;4.32;;;15.10;92.20;;;;;;5077262;28;20106;-73
2023/05/25 07:19:42;;;;;;;14.88;3.75;;;15.00;92.60;;;;;;5059834;28;20028;-73
2023/05/25 07:22:09;;;;;;;13.05;3.45;;;15.10;92.60;;;;;;5095172;28;20036;-73
2023/05/25 07:24:35;;;;;;;15.13;3.67;;;14.90;92.60;;;;;;5094436;28;20035;-73
2023/05/25 07:27:01;;;;;;;13.98;3.75;;;14.90;92.70;;;;;;5094436;28;20031;-73
2023/05/25 07:29:27;;;;;;;11.30;3.38;;;14.90;92.80;;;;;;5076520;28;20081;-73
2023/05/25 07:31:52;;;;;;;14.82;3.10;;;15.00;92.60;;;;;;5094368;28;20032;-73
2023/05/25 07:34:19;;;;;;;14.13;3.22;;;14.90;92.20;;;;;;5094152;28;20438;-73
2023/05/25 07:36:45;;;;;;;9.07;2.83;;;14.90;92.30;;;;;;5094156;28;20047;-73
2023/05/25 07:39:11;;;;;;;13.32;2.50;;;15.00;92.40;;;;;;5076828;28;20457;-73
2023/05/25 07:41:37;;;;;;;13.70;3.08;;;15.10;91.80;;;;;;5075977;28;20174;-73
2023/05/25 07:44:03;;;;;;;13.73;3.47;;;15.20;91.70;;;;;;5075312;28;20545;-72
2023/05/25 07:46:29;;;;;;;12.95;3.38;;;15.10;91.10;;;;;;5076274;28;20032;-74
2023/05/25 07:48:57;;;;;;;16.65;3.67;;;15.00;91.40;;;;;;5058924;28;20055;-76
2023/05/25 07:51:25;;;;;;;13.45;3.17;;;14.90;91.50;;;;;;5059351;28;20054;-76
2023/05/25 07:53:52;;;;;;;11.95;2.45;;;14.90;91.80;;;;;;5093832;28;20107;-74
2023/05/25 07:56:18;;;;;;;12.65;2.83;;;15.00;92.00;;;;;;5059732;28;20060;-73
2023/05/25 07:58:43;;;;;;;13.10;2.92;;;15.20;91.90;;;;;;5093663;28;20431;-74
2023/05/25 08:01:09;;;;;;;11.60;3.08;;;15.30;91.30;;;;;;5076066;28;20500;-74
2023/05/25 08:03:35;;;;;;;12.45;3.45;;;15.20;91.00;;;;;;5075936;28;20024;-73
2023/05/25 08:06:01;;;;;;;11.93;3.33;;;15.20;91.40;;;;;;5093457;28;20044;-74
2023/05/25 08:08:26;;;;;;;12.57;3.05;;;15.40;91.60;;;;;;5075946;28;20028;-74
2023/05/25 08:10:52;;;;;;;15.75;3.38;;;15.50;91.20;;;;;;5093290;28;20508;-74
2023/05/25 08:13:18;;;;;;;11.40;2.80;;;15.60;90.70;;;;;;5076198;28;20028;-74
2023/05/25 08:15:44;;;;;;;9.30;2.88;;;15.60;90.20;;;;;;5075281;28;20468;-73
2023/05/25 08:18:09;;;;;;;16.25;3.50;;;15.70;90.20;;;;;;5093588;28;20033;-73
2023/05/25 08:20:36;;;;;;;10.50;3.08;;;15.70;89.70;;;;;;5075502;28;20032;-73
2023/05/25 08:23:03;;;;;;;9.05;3.17;;;15.60;90.10;;;;;;5075956;28;20178;-73
2023/05/25 08:25:29;;;;;;;11.05;3.03;;;15.50;90.00;;;;;;5093582;28;20035;-74
2023/05/25 08:27:54;;;;;;;10.13;3.65;;;15.40;90.10;;;;;;5058736;28;20032;-74
2023/05/25 08:30:20;;;;;;;11.25;3.40;;;15.40;90.20;;;;;;5075891;28;20121;-73
2023/05/25 08:32:46;;;;;;;13.55;3.67;;;15.60;90.40;;;;;;5093539;28;20461;-74
2023/05/25 08:35:12;;;;;;;11.00;3.13;;;15.60;90.30;;;;;;5093445;28;20453;-75
2023/05/25 08:37:38;;;;;;;14.57;3.58;;;15.70;90.30;;;;;;5075223;28;20028;-74
2023/05/25 08:40:06;;;;;;;16.02;3.95;;;15.80;90.00;;;;;;5075805;28;20444;-74
2023/05/25 08:42:32;;;;;;;11.65;3.05;;;15.70;90.00;;;;;;5093877;28;20028;-75
2023/05/25 08:44:58;;;;;;;9.63;2.65;;;15.80;90.00;;;;;;5093141;28;20476;-75
2023/05/25 08:47:30;;;;;;;14.18;2.83;;;15.80;90.10;;;;;;5058786;28;20040;-74
2023/05/25 08:49:56;;;;;;;13.40;3.35;;;15.90;90.20;;;;;;5093655;28;20452;-76
2023/05/25 08:52:26;;;;;;;10.77;3.30;;;16.00;89.80;;;;;;5074774;28;20032;-75
2023/05/25 08:54:56;;;;;;;12.43;3.45;;;16.00;89.70;;;;;;5076771;28;20038;-75
2023/05/25 08:57:30;;;;;;;12.63;3.50;;;16.00;89.10;;;;;;5097155;28;20050;-75
2023/05/25 09:00:10;;;;;;;13.05;3.53;;;16.10;89.80;;;;;;5097089;28;20051;-74
2023/05/25 09:03:05;;;;;;;12.32;3.28;;;16.10;90.00;;;;;;5096683;28;20029;-75
2023/05/25 09:05:33;;;;;;;14.32;3.63;;;16.00;88.70;;;;;;5096699;28;20024;-75
2023/05/25 09:07:59;;;;;;;13.27;3.17;;;16.00;89.80;;;;;;5078276;28;20032;-75
2023/05/25 09:10:27;;;;;;;13.23;3.30;;;16.10;89.90;;;;;;5096479;28;20156;-76
2023/05/25 09:12:54;;;;;;;13.38;3.33;;;16.30;89.60;;;;;;5096805;28;20082;-76
2023/05/25 09:15:20;;;;;;;15.82;3.03;;;16.40;90.00;;;;;;5096457;28;20028;-76
2023/05/25 09:17:46;;;;;;;9.05;2.85;;;16.40;88.20;;;;;;5078339;28;20093;-76
2023/05/25 09:20:12;;;;;;;12.02;3.55;;;16.50;87.00;;;;;;5096456;28;20040;-75
2023/05/25 09:22:40;;;;;;;14.48;3.35;;;16.40;85.80;;;;;;5061225;28;20033;-74
2023/05/25 09:25:09;;;;;;;13.55;3.70;;;16.30;86.50;;;;;;5096313;28;20054;-75
2023/05/25 09:27:38;;;;;;;9.93;2.80;;;16.10;86.40;;;;;;5062431;28;20024;-75
2023/05/25 09:30:05;;;;;;;12.43;3.75;;;16.10;87.20;;;;;;5077923;28;20040;-76
2023/05/25 09:32:31;;;;;;;9.27;2.45;;;16.40;87.50;;;;;;5062236;28;20055;-76
2023/05/25 09:35:06;;;;;;;11.27;3.08;;;16.40;84.90;;;;;;5078025;28;20444;-75
2023/05/25 09:37:32;;;;;;;9.23;3.00;;;16.40;85.00;;;;;;5096044;28;20068;-76
2023/05/25 09:39:58;;;;;;;11.82;3.13;;;16.40;84.40;;;;;;5078390;28;20024;-75
2023/05/25 09:42:24;;;;;;;10.93;2.63;;;16.50;84.80;;;;;;5096091;28;20020;-75
2023/05/25 09:44:50;;;;;;;7.10;2.65;;;16.50;84.90;;;;;;5077502;28;20325;-77
2023/05/25 09:47:17;;;;;;;7.25;2.55;;;16.50;84.30;;;;;;5060589;28;20039;-76
2023/05/25 09:49:48;;;;;;;15.13;4.20;;;16.70;84.60;;;;;;5077590;28;20032;-76
2023/05/25 09:52:14;;;;;;;9.57;2.30;;;17.00;84.10;;;;;;5078256;28;20028;-76
2023/05/25 09:54:44;;;;;;;8.45;2.40;;;17.20;85.00;;;;;;5095837;28;20034;-79
2023/05/25 09:57:10;;;;;;;10.25;2.80;;;17.50;84.80;;;;;;5077703;28;20028;-74
2023/05/25 09:59:36;;;;;;;10.57;2.85;;;17.90;83.20;;;;;;5095757;28;20074;-75
2023/05/25 10:02:01;;;;;;;8.25;2.50;;;18.00;82.70;;;;;;5095310;28;20028;-76
2023/05/25 10:04:27;;;;;;;8.23;2.10;;;18.00;82.00;;;;;;5076767;28;20392;-75
2023/05/25 10:06:55;;;;;;;11.40;2.67;;;18.00;80.90;;;;;;5060957;28;20408;-75
2023/05/25 10:09:23;;;;;;;7.65;1.75;;;18.00;80.10;;;;;;5077892;28;20082;-77
2023/05/25 10:11:51;;;;;;;6.93;2.00;;;18.00;80.60;;;;;;5093252;28;20546;-75
2023/05/25 10:14:24;;;;;;;7.97;1.60;;;18.10;79.50;;;;;;5077592;28;20087;-78
2023/05/25 10:16:53;;;;;;;6.53;1.73;;;18.10;79.70;;;;;;5095700;28;20028;-76
2023/05/25 10:19:24;;;;;;;9.85;2.10;;;18.10;79.00;;;;;;5060738;28;20032;-76
2023/05/25 10:22:15;;;;;;;5.32;1.70;;;18.30;77.90;;;;;;5095535;28;20111;-76
2023/05/25 10:24:54;;;;;;;6.80;2.13;;;18.20;76.20;;;;;;5095254;28;20028;-75
2023/05/25 10:27:23;;;;;;;4.78;1.65;;;18.10;75.70;;;;;;5095330;28;20027;-77
2023/05/25 10:29:51;;;;;;;6.20;2.17;;;17.90;75.90;;;;;;5095546;28;20035;-78
2023/05/25 10:32:17;;;;;;;9.63;2.55;;;18.00;78.40;;;;;;5077421;28;20028;-75
2023/05/25 10:34:43;;;;;;;6.10;2.33;;;18.20;78.80;;;;;;5077585;28;20028;-76
2023/05/25 10:37:10;;;;;;;8.82;2.70;;;18.40;78.20;;;;;;5077611;28;20241;-76
2023/05/25 10:39:37;;;;;;;6.43;1.90;;;18.30;77.10;;;;;;5060324;28;20036;-77
2023/05/25 10:42:04;;;;;;;10.68;3.08;;;18.20;77.10;;;;;;5076690;28;20028;-76
2023/05/25 10:44:31;;;;;;;13.32;3.53;;;18.40;79.60;;;;;;5076408;28;20198;-76
2023/05/25 10:46:59;;;;;;;6.90;1.90;;;18.70;79.50;;;;;;5094880;28;20033;-77
2023/05/25 10:49:32;;;;;;;7.47;2.13;;;18.90;77.50;;;;;;5076205;28;20028;-76
2023/05/25 10:51:58;;;;;;;7.40;2.00;;;18.90;76.20;;;;;;5076581;28;20029;-75
2023/05/25 10:54:29;;;;;;;7.35;2.10;;;18.90;74.80;;;;;;5076755;28;20024;-77
2023/05/25 10:57:21;;;;;;;8.15;1.90;;;18.70;75.30;;;;;;5094547;28;20067;-75
2023/05/25 10:59:49;;;;;;;5.33;2.60;;;18.50;75.80;;;;;;5091306;28;20064;-75
2023/05/25 11:02:15;;;;;;;7.88;2.33;;;18.40;76.40;;;;;;5059516;28;20275;-74
2023/05/25 11:04:41;;;;;;;5.97;1.77;;;18.30;77.00;;;;;;5094590;28;20028;-74
2023/05/25 11:07:12;;;;;;;9.02;2.15;;;18.30;77.20;;;;;;5075939;28;20068;-76
2023/05/25 11:09:42;;;;;;;6.53;2.03;;;18.40;75.90;;;;;;5077021;28;20036;-75
2023/05/25 11:12:18;;;;;;;7.32;2.10;;;18.30;75.60;;;;;;5094278;28;20055;-76
2023/05/25 11:15:04;;;;;;;6.93;1.90;;;18.50;77.50;;;;;;5075958;28;20036;-75
2023/05/25 11:17:31;;;;;;;6.50;2.00;;;18.70;76.50;;;;;;5078090;28;20134;-75
2023/05/25 11:20:05;;;;;;;8.68;2.35;;;18.70;76.40;;;;;;5076071;28;20031;-76
2023/05/25 11:22:35;;;;;;;7.55;1.90;;;18.60;75.80;;;;;;5094140;28;20051;-76
2023/05/25 11:25:02;;;;;;;5.72;1.80;;;18.40;75.90;;;;;;5094732;28;20127;-75
2023/05/25 11:27:29;;;;;;;8.68;2.08;;;18.40;75.10;;;;;;5075834;28;20407;-76
2023/05/25 11:29:57;;;;;;;7.93;2.28;;;18.30;75.70;;;;;;5058912;28;20028;-76
2023/05/25 11:32:24;;;;;;;8.57;2.38;;;18.30;77.40;;;;;;5076305;28;20028;-76
2023/05/25 11:34:54;;;;;;;5.28;2.00;;;18.40;77.50;;;;;;5094158;28;20086;-76
2023/05/25 11:37:23;;;;;;;4.82;1.70;;;18.40;75.60;;;;;;5094068;28;20081;-76
2023/05/25 11:39:52;;;;;;;5.80;2.10;;;18.40;74.20;;;;;;5075506;28;20469;-76
2023/05/25 11:42:19;;;;;;;7.38;1.75;;;18.50;74.10;;;;;;5076237;28;20023;-75
2023/05/25 11:44:45;;;;;;;6.55;1.83;;;18.50;72.80;;;;;;5076134;28;20031;-76
2023/05/25 11:47:33;;;;;;;5.72;1.83;;;18.60;73.50;;;;;;5075695;28;20031;-76
2023/05/25 11:49:58;;;;;;;4.97;1.63;;;18.90;73.20;;;;;;5078640;28;20085;-77
2023/05/25 11:52:26;;;;;;;7.93;2.22;;;19.00;71.70;;;;;;5093544;28;20103;-77
2023/05/25 11:54:52;;;;;;;7.63;2.05;;;19.00;72.30;;;;;;5093476;28;20036;-76
2023/05/25 11:57:23;;;;;;;9.60;2.22;;;19.30;74.50;;;;;;5075927;28;20112;-77
2023/05/25 11:59:50;;;;;;;5.60;1.90;;;19.60;70.80;;;;;;5075927;28;20024;-74
2023/05/25 12:02:16;;;;;;;6.93;2.03;;;19.60;70.60;;;;;;5074813;28;20024;-75
2023/05/25 12:04:56;;;;;;;8.20;2.08;;;19.50;69.80;;;;;;5075311;28;20028;-75
2023/05/25 12:07:22;;;;;;;6.53;2.08;;;19.60;71.20;;;;;;5075475;28;20027;-75
2023/05/25 12:09:47;;;;;;;6.28;2.10;;;19.80;70.50;;;;;;5093524;28;20050;-75
2023/05/25 12:12:13;;;;;;;10.52;2.67;;;20.10;70.50;;;;;;5093270;28;20048;-75
2023/05/25 12:14:49;;;;;;;7.30;1.98;;;20.20;69.60;;;;;;5075850;28;20028;-75
2023/05/25 12:17:20;;;;;;;5.25;1.95;;;20.00;70.00;;;;;;5093774;28;20090;-75
2023/05/25 12:19:46;;;;;;;10.05;2.60;;;19.90;69.90;;;;;;5093753;28;20032;-75
2023/05/25 12:22:13;;;;;;;5.38;1.63;;;19.90;70.30;;;;;;5074913;28;20123;-75
2023/05/25 12:24:39;;;;;;;7.38;2.20;;;19.80;70.90;;;;;;5093349;28;20028;-75
2023/05/25 12:27:16;;;;;;;11.63;2.17;;;19.80;70.90;;;;;;5075304;28;20040;-75
2023/05/25 12:29:48;;;;;;;7.57;2.33;;;19.60;70.40;;;;;;5074857;28;20035;-76
2023/05/25 12:32:14;;;;;;;9.43;2.33;;;19.40;71.30;;;;;;5092992;28;20531;-76
2023/05/25 12:34:40;;;;;;;10.00;2.58;;;19.50;71.80;;;;;;5093291;28;20067;-75
2023/05/25 12:37:20;;;;;;;9.60;3.00;;;19.60;72.40;;;;;;5075058;28;20054;-75
2023/05/25 12:39:46;;;;;;;7.28;2.30;;;19.50;70.90;;;;;;5075056;28;20020;-75
2023/05/25 12:42:14;;;;;;;7.63;2.17;;;19.40;70.10;;;;;;5093117;28;20028;-74
2023/05/25 12:44:40;;;;;;;11.25;2.72;;;19.40;70.10;;;;;;5075270;28;20060;-74